Flight Track Log - Related Links

Times and Time Zones

All times are in EDT time to prevent confusion due to time zone crossing. See the N234GF flight status page for this flight to view local times or setup timezone preferences in your user account.

Time Position Orientation Groundspeed Altitude Reporting Facility
EDT Latitude Longitude Course Direction KTS MPH feet Rate Location/Type
Wed 05:19:11 PM 49.1667 -123.1333 104° East 200 230 1,200  Level Vancouver Center
Wed 05:20:11 PM 49.1500 -123.0333 104° East 250 288 3,700 2,850 Climbing Vancouver Center
Wed 05:21:11 PM 49.1167 -122.9333 117° Southeast 270 311 6,900 2,950 Climbing Vancouver Center
Wed 05:22:11 PM 49.0833 -122.8333 117° Southeast 290 334 9,600 2,550 Climbing Vancouver Center
Wed 05:23:11 PM 49.0333 -122.7333 127° Southeast 300 345 12,000 2,300 Climbing Vancouver Center
Wed 05:24:11 PM 49.0000 -122.6000 111° Southeast 330 380 14,200 2,250 Climbing Vancouver Center
Wed 05:25:11 PM 48.9667 -122.4833 113° Southeast 340 391 16,500 2,350 Climbing Vancouver Center
Wed 05:26:11 PM 48.9333 -122.3333 109° East 350 403 18,900 2,200 Climbing Vancouver Center
Wed 05:27:11 PM 48.9000 -122.2000 111° Southeast 340 391 20,900 1,900 Climbing Vancouver Center
Wed 05:28:11 PM 48.8500 -122.0500 117° Southeast 350 403 22,700 1,750 Climbing Vancouver Center
Wed 05:29:11 PM 48.8167 -121.9167 111° Southeast 350 403 24,400 1,582 Climbing Vancouver Center
Wed 05:30:01 PM 48.8072 -121.8147 98° East 359 413 25,600 1,243 Climbing Seattle Center
Wed 05:31:02 PM 48.7706 -121.6703 111° Southeast 371 427 26,700 1,131 Climbing Seattle Center
Wed 05:32:03 PM 48.7431 -121.5175 105° East 377 434 27,900 1,131 Climbing Seattle Center
Wed 05:33:04 PM 48.7136 -121.3619 106° East 387 445 29,000 1,033 Climbing Seattle Center
Wed 05:34:05 PM 48.6825 -121.2031 106° East 395 455 30,000 1,033 Climbing Seattle Center
Wed 05:35:06 PM 48.6525 -121.0444 106° East 396 456 31,100 1,073 Climbing Seattle Center
Wed 05:36:08 PM 48.6222 -120.8867 106° East 395 455 32,200 1,180 Climbing Seattle Center
Wed 05:37:08 PM 48.5847 -120.7014 107° East 390 449 33,500 1,140 Climbing Seattle Center
Wed 05:38:09 PM 48.5556 -120.5475 106° East 387 445 34,500 984 Climbing Seattle Center
Wed 05:39:10 PM 48.5289 -120.4072 106° East 379 436 35,500 885 Climbing Seattle Center
Wed 05:40:11 PM 48.4964 -120.2589 108° East 374 430 36,300 689 Climbing Seattle Center
Wed 05:41:12 PM 48.4719 -120.1094 104° East 371 427 36,900 344 Climbing Seattle Center
Wed 05:42:13 PM 48.4736 -119.9531 89° East 374 430 37,000 49 Climbing Seattle Center
Wed 05:43:14 PM 48.4739 -119.7886 90° East 388 447 37,000  Level Seattle Center
Wed 05:44:15 PM 48.4739 -119.5842 90° East 406 467 37,000  Level Seattle Center
Wed 05:45:16 PM 48.4747 -119.4069 90° East 421 484 37,000  Level Seattle Center
Wed 05:46:17 PM 48.4742 -119.2264 90° East 430 495 37,000  Level Seattle Center
Wed 05:47:18 PM 48.4708 -119.0444 92° East 432 497 37,000  Level Seattle Center
Wed 05:48:19 PM 48.4706 -118.8611 90° East 435 501 37,000  Level Seattle Center
Wed 05:49:20 PM 48.4694 -118.6756 90° East 441 507 37,000  Level Seattle Center
Wed 05:50:21 PM 48.4672 -118.4925 91° East 439 505 37,000  Level Seattle Center
Wed 05:51:22 PM 48.4644 -118.3081 91° East 440 506 37,000  Level Seattle Center
Wed 05:52:23 PM 48.4619 -118.1244 91° East 440 506 37,000  Level Seattle Center
Wed 05:53:24 PM 48.4592 -117.9414 91° East 438 504 37,000  Level Seattle Center
Wed 05:54:11 PM 48.4333 -117.7333 101° East 440 506 37,000  Level Vancouver Center
Wed 05:55:11 PM 48.4333 -117.5500 90° East 440 506 37,000  Level Vancouver Center
Wed 05:56:11 PM 48.4333 -117.3833 90° East 440 506 37,000  Level Vancouver Center
Wed 05:57:27 PM 48.4439 -117.2058 85° East 440 506 37,000 175 Level Seattle Center
Wed 05:58:28 PM 48.4392 -116.9856 92° East 439 505 37,400 635 Climbing Seattle Center
Wed 05:59:11 PM 48.4167 -116.8333 103° East 430 495 38,100 757 Climbing Vancouver Center
Wed 06:00:11 PM 48.4167 -116.6500 90° East 420 483 38,700 450 Climbing Vancouver Center
Wed 06:01:11 PM 48.4167 -116.4833 90° East 420 483 39,000 225 Climbing Vancouver Center
Wed 06:01:31 PM 48.4239 -116.4608 64° Northeast 415 478 39,000  Level Seattle Center
Wed 06:02:32 PM 48.4197 -116.2861 92° East 417 480 39,000  Level Seattle Center
Wed 06:03:33 PM 48.4139 -116.1069 93° East 425 489 39,000  Level Seattle Center
Wed 06:04:34 PM 48.4075 -115.9144 93° East 430 495 39,000  Level Seattle Center
Wed 06:05:35 PM 48.4008 -115.7336 93° East 433 498 39,000  Level Seattle Center
Wed 06:06:36 PM 48.3942 -115.5494 93° East 438 504 39,000  Level Seattle Center
Wed 06:07:37 PM 48.3875 -115.3675 93° East 437 503 39,000  Level Seattle Center
Wed 06:08:38 PM 48.3814 -115.1847 93° East 439 505 39,000  Level Seattle Center
Wed 06:09:39 PM 48.3725 -115.0014 94° East 439 505 39,000  Level Seattle Center
Wed 06:10:40 PM 48.3647 -114.8181 94° East 439 505 39,000  Level Seattle Center
Wed 06:11:41 PM 48.3561 -114.6336 94° East 440 506 39,000  Level Seattle Center
Wed 06:12:27 PM 48.3503 -114.4858 93° East 441 507 39,000  Level Salt Lake Center
Wed 06:13:42 PM 48.3392 -114.2631 94° East 442 509 39,000  Level Salt Lake Center
Wed 06:14:43 PM 48.3292 -114.0756 95° East 445 512 39,000  Level Salt Lake Center
Wed 06:15:45 PM 48.3206 -113.8883 94° East 447 514 39,000  Level Salt Lake Center
Wed 06:16:47 PM 48.3097 -113.7033 95° East 445 512 39,000  Level Salt Lake Center
Wed 06:17:49 PM 48.3003 -113.5169 94° East 446 513 39,000  Level Salt Lake Center
Wed 06:18:50 PM 48.2878 -113.2958 95° East 444 511 39,000  Level Salt Lake Center
Wed 06:19:52 PM 48.2772 -113.1117 95° East 444 511 39,000  Level Salt Lake Center
Wed 06:20:54 PM 48.2661 -112.9250 95° East 449 517 39,000  Level Salt Lake Center
Wed 06:21:56 PM 48.2542 -112.7411 96° East 445 512 39,000  Level Salt Lake Center
Wed 06:22:58 PM 48.2419 -112.5461 95° East 449 517 39,000  Level Salt Lake Center
Wed 06:24:00 PM 48.2300 -112.3597 95° East 450 518 39,000  Level Salt Lake Center
Wed 06:25:02 PM 48.2178 -112.1739 96° East 449 517 39,000  Level Salt Lake Center
Wed 06:26:03 PM 48.2044 -111.9864 96° East 451 519 39,000  Level Salt Lake Center
Wed 06:27:05 PM 48.1917 -111.7986 96° East 452 520 39,000  Level Salt Lake Center
Wed 06:28:07 PM 48.1756 -111.5733 96° East 452 520 39,000  Level Salt Lake Center
Wed 06:29:09 PM 48.1633 -111.3867 96° East 451 519 39,000  Level Salt Lake Center
Wed 06:30:11 PM 48.1483 -111.1981 97° East 452 520 39,000  Level Salt Lake Center
Wed 06:31:13 PM 48.1344 -111.0089 96° East 455 524 39,000  Level Salt Lake Center
Wed 06:32:14 PM 48.1197 -110.8208 97° East 453 521 39,000  Level Salt Lake Center
Wed 06:33:16 PM 48.1042 -110.6322 97° East 455 524 39,000  Level Salt Lake Center
Wed 06:34:18 PM 48.0894 -110.4447 97° East 454 522 39,000  Level Salt Lake Center
Wed 06:35:20 PM 48.0747 -110.2567 97° East 454 522 39,000  Level Salt Lake Center
Wed 06:36:22 PM 48.0556 -110.0306 97° East 457 526 39,000  Level Salt Lake Center
Wed 06:37:24 PM 48.0383 -109.8408 98° East 459 528 39,000  Level Salt Lake Center
Wed 06:38:25 PM 48.0222 -109.6536 97° East 458 527 39,000  Level Salt Lake Center
Wed 06:39:27 PM 48.0058 -109.4656 97° East 457 526 39,000  Level Salt Lake Center
Wed 06:40:29 PM 47.9886 -109.2769 98° East 458 527 39,000  Level Salt Lake Center
Wed 06:41:31 PM 47.9708 -109.0886 98° East 459 528 39,000  Level Salt Lake Center
Wed 06:42:33 PM 47.9517 -108.8981 98° East 463 533 39,000  Level Salt Lake Center
Wed 06:43:34 PM 47.9306 -108.6706 98° East 463 533 39,000  Level Salt Lake Center
Wed 06:44:36 PM 47.9117 -108.4814 98° East 463 533 39,000  Level Salt Lake Center
Wed 06:45:38 PM 47.8925 -108.2931 99° East 462 532 39,000  Level Salt Lake Center
Wed 06:46:40 PM 47.8739 -108.1028 98° East 464 534 39,000  Level Salt Lake Center
Wed 06:47:41 PM 47.8531 -107.9136 99° East 465 535 39,000  Level Salt Lake Center
Wed 06:48:43 PM 47.8331 -107.7231 99° East 466 536 39,000  Level Salt Lake Center
Wed 06:49:45 PM 47.8125 -107.5328 99° East 467 537 39,000  Level Salt Lake Center
Wed 06:50:46 PM 47.7908 -107.3361 99° East 469 540 39,000  Level Salt Lake Center
Wed 06:51:48 PM 47.7644 -107.1058 100° East 470 541 39,000  Level Salt Lake Center
Wed 06:52:50 PM 47.7436 -106.9167 99° East 468 539 39,000  Level Salt Lake Center
Wed 06:53:51 PM 47.7214 -106.7261 100° East 469 540 39,000  Level Salt Lake Center
Wed 06:54:53 PM 47.6994 -106.5367 100° East 469 540 39,000  Level Salt Lake Center
Wed 06:55:55 PM 47.6761 -106.3464 100° East 469 540 39,000  Level Salt Lake Center
Wed 06:56:56 PM 47.6542 -106.1567 100° East 469 540 39,000  Level Salt Lake Center
Wed 06:57:58 PM 47.6306 -105.9678 100° East 468 539 39,000  Level Salt Lake Center
Wed 06:58:59 PM 47.6064 -105.7789 101° East 468 539 39,000  Level Salt Lake Center
Wed 07:00:01 PM 47.5786 -105.5536 100° East 466 536 39,000  Level Salt Lake Center
Wed 07:01:03 PM 47.5542 -105.3636 101° East 470 541 39,000  Level Salt Lake Center
Wed 07:02:05 PM 47.5297 -105.1756 101° East 469 540 39,000  Level Salt Lake Center
Wed 07:03:06 PM 47.5039 -104.9881 101° East 468 539 39,000  Level Salt Lake Center
Wed 07:04:08 PM 47.4789 -104.8022 101° East 466 536 39,000  Level Salt Lake Center
Wed 07:05:09 PM 47.4547 -104.6153 101° East 466 536 39,000  Level Salt Lake Center
Wed 07:06:11 PM 47.4231 -104.3897 102° East 468 539 39,000  Level Salt Lake Center
Wed 07:07:12 PM 47.3981 -104.2056 101° East 466 536 39,000  Level Salt Lake Center
Wed 07:08:14 PM 47.3711 -104.0194 102° East 467 537 39,000  Level Salt Lake Center
Wed 07:09:15 PM 47.3458 -103.8364 101° East 466 536 39,000  Level Salt Lake Center
Wed 07:10:17 PM 47.3203 -103.6517 101° East 466 536 39,000  Level Salt Lake Center
Wed 07:11:19 PM 47.2939 -103.4672 102° East 466 536 39,000  Level Salt Lake Center
Wed 07:12:20 PM 47.2611 -103.2481 102° East 463 533 39,000  Level Salt Lake Center
Wed 07:13:22 PM 47.2333 -103.0636 102° East 464 534 39,000  Level Salt Lake Center
Wed 07:13:57 PM 47.2183 -102.9556 102° East 462 532 39,000  Level Minneapolis Center
Wed 07:14:59 PM 47.1925 -102.7697 101° East 464 534 39,000  Level Minneapolis Center
Wed 07:16:01 PM 47.1628 -102.5883 103° East 462 532 39,000  Level Minneapolis Center
Wed 07:17:03 PM 47.1358 -102.4039 102° East 462 532 39,000  Level Minneapolis Center
Wed 07:18:05 PM 47.1064 -102.2206 103° East 464 534 39,000  Level Minneapolis Center
Wed 07:19:08 PM 47.0700 -102.0028 104° East 461 531 39,000  Level Minneapolis Center
Wed 07:20:10 PM 47.0397 -101.8192 104° East 464 534 39,000  Level Minneapolis Center
Wed 07:21:12 PM 47.0100 -101.6375 103° East 461 531 39,000  Level Minneapolis Center
Wed 07:22:14 PM 46.9811 -101.4619 104° East 461 531 39,000  Level Minneapolis Center
Wed 07:23:16 PM 46.9447 -101.2408 103° East 464 534 39,000  Level Minneapolis Center
Wed 07:24:18 PM 46.9139 -101.0581 104° East 463 533 39,000  Level Minneapolis Center
Wed 07:25:20 PM 46.8831 -100.8744 104° East 464 534 39,000  Level Minneapolis Center
Wed 07:26:22 PM 46.8508 -100.6908 104° East 467 537 39,000  Level Minneapolis Center
Wed 07:27:24 PM 46.8200 -100.5117 104° East 460 529 39,000  Level Minneapolis Center
Wed 07:28:26 PM 46.7886 -100.3319 104° East 457 526 39,000  Level Minneapolis Center
Wed 07:29:28 PM 46.7556 -100.1517 105° East 458 527 39,000  Level Minneapolis Center
Wed 07:30:31 PM 46.7194 -99.9500 105° East 458 527 39,000  Level Minneapolis Center
Wed 07:31:33 PM 46.6878 -99.7714 104° East 457 526 39,000  Level Minneapolis Center
Wed 07:32:35 PM 46.6542 -99.5947 105° East 456 525 39,000  Level Minneapolis Center
Wed 07:33:37 PM 46.6219 -99.4183 105° East 454 522 39,000  Level Minneapolis Center
Wed 07:34:39 PM 46.5828 -99.2056 105° East 456 525 39,000  Level Minneapolis Center
Wed 07:35:41 PM 46.5492 -99.0311 106° East 453 521 39,000  Level Minneapolis Center
Wed 07:36:43 PM 46.5156 -98.8539 105° East 455 524 39,000  Level Minneapolis Center
Wed 07:37:45 PM 46.4819 -98.6783 105° East 455 524 39,000  Level Minneapolis Center
Wed 07:38:47 PM 46.4472 -98.5028 106° East 455 524 39,000  Level Minneapolis Center
Wed 07:39:49 PM 46.4064 -98.2911 106° East 457 526 39,000  Level Minneapolis Center
Wed 07:40:51 PM 46.3703 -98.1158 107° East 458 527 39,000  Level Minneapolis Center
Wed 07:41:53 PM 46.3356 -97.9400 106° East 458 527 39,000  Level Minneapolis Center
Wed 07:42:55 PM 46.2992 -97.7656 107° East 456 525 39,000  Level Minneapolis Center
Wed 07:43:58 PM 46.2642 -97.5897 106° East 457 526 39,000  Level Minneapolis Center
Wed 07:45:00 PM 46.2208 -97.3789 106° East 460 529 39,000  Level Minneapolis Center
Wed 07:46:02 PM 46.1844 -97.2058 107° East 455 524 39,000  Level Minneapolis Center
Wed 07:47:04 PM 46.1481 -97.0311 107° East 457 526 39,000  Level Minneapolis Center
Wed 07:48:06 PM 46.1133 -96.8678 107° East 455 524 39,000  Level Minneapolis Center
Wed 07:49:08 PM 46.0683 -96.6583 107° East 456 525 39,000  Level Minneapolis Center
Wed 07:50:10 PM 46.0306 -96.4844 107° East 456 525 39,000  Level Minneapolis Center
Wed 07:51:12 PM 45.9933 -96.3111 107° East 455 524 39,000  Level Minneapolis Center
Wed 07:52:14 PM 45.9556 -96.1383 107° East 453 521 39,000  Level Minneapolis Center
Wed 07:53:16 PM 45.9178 -95.9664 107° East 453 521 39,000  Level Minneapolis Center
Wed 07:54:18 PM 45.8806 -95.7944 107° East 451 519 39,000  Level Minneapolis Center
Wed 07:55:20 PM 45.8344 -95.5886 108° East 452 520 39,000  Level Minneapolis Center
Wed 07:56:22 PM 45.7958 -95.4208 108° East 447 514 39,000  Level Minneapolis Center
Wed 07:57:24 PM 45.7581 -95.2533 108° East 444 511 39,000  Level Minneapolis Center
Wed 07:58:26 PM 45.7192 -95.0844 108° East 446 513 39,000  Level Minneapolis Center
Wed 07:59:28 PM 45.6789 -94.9100 108° East 447 514 39,000  Level Minneapolis Center
Wed 08:00:31 PM 45.6389 -94.7411 109° East 450 518 39,000  Level Minneapolis Center
Wed 08:01:33 PM 45.6000 -94.5711 108° East 451 519 39,000  Level Minneapolis Center
Wed 08:02:35 PM 45.5514 -94.3689 109° East 450 518 39,000  Level Minneapolis Center
Wed 08:03:37 PM 45.5108 -94.2003 109° East 451 519 39,000  Level Minneapolis Center
Wed 08:04:39 PM 45.4703 -94.0311 109° East 451 519 39,000  Level Minneapolis Center
Wed 08:05:41 PM 45.4286 -93.8625 109° East 452 520 39,000  Level Minneapolis Center
Wed 08:06:43 PM 45.3881 -93.6933 109° East 453 521 39,000  Level Minneapolis Center
Wed 08:07:45 PM 45.3458 -93.5222 109° East 458 527 39,000  Level Minneapolis Center
Wed 08:08:47 PM 45.3031 -93.3522 110° East 457 526 39,000  Level Minneapolis Center
Wed 08:09:49 PM 45.2519 -93.1481 110° East 456 525 39,000  Level Minneapolis Center
Wed 08:10:51 PM 45.2092 -92.9786 110° East 455 524 39,000  Level Minneapolis Center
Wed 08:11:53 PM 45.1650 -92.8067 110° East 461 531 39,000  Level Minneapolis Center
Wed 08:12:55 PM 45.1219 -92.6361 110° East 460 529 39,000  Level Minneapolis Center
Wed 08:13:57 PM 45.0775 -92.4658 110° East 460 529 39,000  Level Minneapolis Center
Wed 08:14:59 PM 45.0331 -92.2947 110° East 463 533 39,000  Level Minneapolis Center
Wed 08:16:01 PM 44.9794 -92.0903 110° East 463 533 39,000  Level Minneapolis Center
Wed 08:17:03 PM 44.9344 -91.9219 111° Southeast 461 531 39,000  Level Minneapolis Center
Wed 08:18:05 PM 44.8894 -91.7511 110° East 464 534 39,000  Level Minneapolis Center
Wed 08:19:07 PM 44.8442 -91.5828 111° Southeast 462 532 39,000  Level Minneapolis Center
Wed 08:20:09 PM 44.7983 -91.4144 111° Southeast 462 532 39,000  Level Minneapolis Center
Wed 08:21:11 PM 44.7531 -91.2467 111° Southeast 462 532 39,000  Level Minneapolis Center
Wed 08:22:13 PM 44.6972 -91.0444 111° Southeast 462 532 39,000  Level Minneapolis Center
Wed 08:23:15 PM 44.6506 -90.8761 111° Southeast 463 533 39,000  Level Minneapolis Center
Wed 08:24:17 PM 44.6053 -90.7067 111° Southeast 465 535 39,000  Level Minneapolis Center
Wed 08:25:19 PM 44.5569 -90.5333 111° Southeast 462 532 39,000  Level Minneapolis Center
Wed 08:26:21 PM 44.5094 -90.3647 112° Southeast 464 534 39,000  Level Minneapolis Center
Wed 08:27:23 PM 44.4619 -90.1983 112° Southeast 462 532 39,000  Level Minneapolis Center
Wed 08:28:25 PM 44.4150 -90.0317 111° Southeast 463 533 39,000  Level Minneapolis Center
Wed 08:29:27 PM 44.3592 -89.8367 112° Southeast 463 533 39,000  Level Minneapolis Center
Wed 08:30:29 PM 44.3108 -89.6706 112° Southeast 462 532 39,000  Level Minneapolis Center
Wed 08:31:31 PM 44.2617 -89.5050 112° Southeast 461 531 39,000  Level Minneapolis Center
Wed 08:32:33 PM 44.2133 -89.3403 112° Southeast 459 528 39,000  Level Minneapolis Center
Wed 08:33:35 PM 44.1644 -89.1744 112° Southeast 460 529 39,000  Level Minneapolis Center
Wed 08:34:37 PM 44.1158 -89.0103 112° Southeast 460 529 39,000  Level Minneapolis Center
Wed 08:35:39 PM 44.0592 -88.8178 112° Southeast 459 528 39,000  Level Minneapolis Center
Wed 08:36:41 PM 44.0092 -88.6533 113° Southeast 459 528 39,000  Level Minneapolis Center
Wed 08:37:43 PM 43.9597 -88.4894 113° Southeast 458 527 39,000  Level Minneapolis Center
Wed 08:38:45 PM 43.9094 -88.3253 113° Southeast 459 528 39,000  Level Minneapolis Center
Wed 08:39:47 PM 43.8581 -88.1622 114° Southeast 459 528 39,000  Level Minneapolis Center
Wed 08:40:49 PM 43.8081 -87.9989 113° Southeast 458 527 39,000  Level Minneapolis Center
Wed 08:41:51 PM 43.7561 -87.8347 114° Southeast 461 531 39,000  Level Minneapolis Center
Wed 08:42:53 PM 43.6969 -87.6469 113° Southeast 457 526 39,000  Level Minneapolis Center
Wed 08:43:18 PM 43.6814 -87.5928 112° Southeast 457 526 39,000 -276 Level Chicago Center
Wed 08:44:20 PM 43.6311 -87.4328 113° Southeast 454 522 38,600 -968 Descending Chicago Center
Wed 08:45:22 PM 43.5775 -87.2686 114° Southeast 452 520 37,000 -1,839 Descending Chicago Center
Wed 08:46:24 PM 43.5281 -87.1136 114° Southeast 443 510 34,800 -1,935 Descending Chicago Center
Wed 08:47:26 PM 43.4794 -86.9606 114° Southeast 437 503 33,000 -878 Descending Chicago Center
Wed 08:48:27 PM 43.4300 -86.8072 114° Southeast 437 503 33,000  Level Chicago Center
Wed 08:49:29 PM 43.3700 -86.6247 114° Southeast 437 503 33,000  Level Chicago Center
Wed 08:50:31 PM 43.3203 -86.4706 114° Southeast 441 507 33,000  Level Chicago Center
Wed 08:51:33 PM 43.2700 -86.3169 114° Southeast 441 507 33,000 -242 Level Chicago Center
Wed 08:52:35 PM 43.2183 -86.1625 115° Southeast 444 511 32,500 -774 Descending Chicago Center
Wed 08:53:37 PM 43.1667 -86.0061 114° Southeast 444 511 31,400 -1,210 Descending Chicago Center
Wed 08:54:39 PM 43.1136 -85.8464 114° Southeast 445 512 30,000 -1,452 Descending Chicago Center
Wed 08:55:41 PM 43.0600 -85.6911 115° Southeast 447 514 28,400 -1,742 Descending Chicago Center
Wed 08:56:43 PM 43.0078 -85.5361 115° Southeast 447 514 26,400 -2,081 Descending Chicago Center
Wed 08:57:45 PM 42.9556 -85.3853 115° Southeast 440 506 24,100 -2,516 Descending Chicago Center
Wed 08:58:47 PM 42.8950 -85.2069 115° Southeast 433 498 21,200 -1,500 Descending Chicago Center
Wed 08:59:49 PM 42.8447 -85.0611 115° Southeast 427 491 21,000 -97 Descending Chicago Center
Wed 09:00:51 PM 42.7947 -84.9158 115° Southeast 426 490 21,000  Level Chicago Center
Wed 09:01:53 PM 42.7714 -84.7597 101° East 424 488 21,000 -823 Level Chicago Center
Wed 09:02:55 PM 42.7589 -84.6067 96° East 412 474 19,300 -2,389 Descending Chicago Center
Wed 09:03:41 PM 42.7489 -84.4742 96° East 387 445 16,700 -2,761 Descending Cleveland Center
Wed 09:04:48 PM 42.7333 -84.3147 98° East 395 455 14,100 -2,371 Descending Cleveland Center
Wed 09:05:45 PM 42.7208 -84.1783 97° East 384 442 11,800 -2,051 Descending Cleveland Center
Wed 09:06:45 PM 42.7119 -84.0647 96° East 343 395 10,100 -1,650 Descending Cleveland Center
Wed 09:07:45 PM 42.6917 -83.9703 106° East 283 326 8,500 -1,450 Descending Cleveland Center
Wed 09:08:45 PM 42.6289 -83.9106 145° Southeast 253 291 7,200 -1,150 Descending Cleveland Center
Wed 09:09:45 PM 42.5869 -83.8461 131° Southeast 246 283 6,200 -1,000 Descending Cleveland Center
Wed 09:10:45 PM 42.6222 -83.7803 54° Northeast 173 199 5,200 -891 Descending Cleveland Center
Wed 09:11:53 PM 42.6428 -83.7136 67° East 179 206 4,300 -698 Descending Cleveland Center
Wed 09:12:54 PM 42.6553 -83.6322 78° East 204 235 3,700 -797 Descending Cleveland Center
Wed 09:14:01 PM 42.6614 -83.5619 83° East 164 189 2,600 -850 Descending Cleveland Center
Wed 09:15:01 PM 42.6631 -83.4972 88° East 164 189 1,900 -700 Descending Cleveland Center
Wed 09:17:00 PM 42.6500 -83.4167 90° East  Level FlightAware Approximate
Wed 09:24:00 PM 42.6656 -83.4205 90° East  Level Estimated
Wed 09:25:00 PM 42.6656 -83.4205 90° East  Level Estimated

Login

Don't have an account? Register now (free) for customized features, flight alerts, and more!